FIN14TL LFSB-LGIR
Flight info
| Callsign | FIN14TL |
|---|---|
| Flight time | N/A |
| Altitude | 37000 |
| Route | OLBEN8Y OLBEN DCT OLBEN DCT VEBIT DCT URIGI DCT GERSA DCT KELIP DCT SOPER DCT PELAD DCT RESIA DCT ATPED DCT NEGIK DCT IBUGO DCT IPD DCT CHI DCT NIKOL DCT ELGUS DCT AIOSA DCT VURKE DCT GOKEL DCT PITAS DCT KRK DCT AKT DCT ARX DCT TRL DCT MANOK DCT RUSOS DCT EPALO DCT XAVIS XAVIS1A |
| Aircraft | A333/H-SDE3GHIJ2J3J5M1RVWXY/LB2D1 |
Departure
| Time | 2026-05-04 05:45 |
|---|---|
| Airport | EuroAirport Basel–Mulhouse–Freiburg (LFSB) |
Arrival
| Time | N/A |
|---|---|
| Airport | Heraklion International Nikos Kazantzakis Airport (LGIR) |
| Time | Latitude | Longitude | Altitude | Speed | Heading |
|---|---|---|---|---|---|
| 2026-05-04 05:19 | 47.59725 | 7.52956 | 873 ft | 0 kts | 323° |
| 2026-05-04 05:28 | 47.59681 | 7.53038 | 874 ft | 1 kts | 257° |
| 2026-05-04 05:29 | 47.59683 | 7.53049 | 874 ft | 1 kts | 243° |
| 2026-05-04 05:29 | 47.59687 | 7.53059 | 874 ft | 0 kts | 234° |
| 2026-05-04 05:29 | 47.59689 | 7.53064 | 873 ft | 0 kts | 233° |
| 2026-05-04 05:29 | 47.59689 | 7.53065 | 873 ft | 0 kts | 233° |
| 2026-05-04 05:31 | 47.59690 | 7.53066 | 873 ft | 0 kts | 233° |
| 2026-05-04 05:36 | 47.59677 | 7.53028 | 874 ft | 10 kts | 243° |
| 2026-05-04 05:36 | 47.59637 | 7.52905 | 875 ft | 16 kts | 245° |
| 2026-05-04 05:36 | 47.59659 | 7.52750 | 875 ft | 18 kts | 332° |
| 2026-05-04 05:37 | 47.59782 | 7.52664 | 873 ft | 21 kts | 334° |
| 2026-05-04 05:37 | 47.59930 | 7.52562 | 870 ft | 24 kts | 335° |
| 2026-05-04 05:37 | 47.60084 | 7.52455 | 868 ft | 25 kts | 335° |
| 2026-05-04 05:38 | 47.60404 | 7.52230 | 864 ft | 25 kts | 335° |
| 2026-05-04 05:38 | 47.60563 | 7.52121 | 862 ft | 21 kts | 335° |
| 2026-05-04 05:38 | 47.60698 | 7.52028 | 860 ft | 21 kts | 335° |
| 2026-05-04 05:38 | 47.60840 | 7.51929 | 857 ft | 22 kts | 335° |
| 2026-05-04 05:39 | 47.60983 | 7.51829 | 856 ft | 22 kts | 335° |
| 2026-05-04 05:39 | 47.61266 | 7.51633 | 854 ft | 22 kts | 335° |
| 2026-05-04 05:39 | 47.61406 | 7.51537 | 855 ft | 21 kts | 335° |
| 2026-05-04 05:40 | 47.61656 | 7.51360 | 858 ft | 18 kts | 335° |
| 2026-05-04 05:40 | 47.61767 | 7.51280 | 859 ft | 15 kts | 326° |
| 2026-05-04 05:40 | 47.61800 | 7.51223 | 859 ft | 0 kts | 293° |
| 2026-05-04 05:41 | 47.61805 | 7.51163 | 859 ft | 10 kts | 267° |
| 2026-05-04 05:41 | 47.61780 | 7.51058 | 859 ft | 10 kts | 241° |
| 2026-05-04 05:42 | 47.61720 | 7.51026 | 859 ft | 10 kts | 162° |
| 2026-05-04 05:42 | 47.61688 | 7.51044 | 859 ft | 0 kts | 157° |
| 2026-05-04 05:43 | 47.61623 | 7.51089 | 859 ft | 27 kts | 154° |
| 2026-05-04 05:43 | 47.61297 | 7.51318 | 859 ft | 77 kts | 155° |
| 2026-05-04 05:43 | 47.60667 | 7.51761 | 864 ft | 121 kts | 152° |
| 2026-05-04 05:45 | 47.53282 | 7.51088 | 3723 ft | 207 kts | 230° |
| 2026-05-04 05:45 | 47.52673 | 7.49193 | 4220 ft | 209 kts | 262° |
| 2026-05-04 05:47 | 47.46517 | 7.43392 | 7962 ft | 207 kts | 139° |
| 2026-05-04 05:47 | 47.45393 | 7.44733 | 8475 ft | 207 kts | 140° |
| 2026-05-04 05:47 | 47.44276 | 7.46079 | 8972 ft | 208 kts | 140° |
| 2026-05-04 05:48 | 47.43169 | 7.47427 | 9469 ft | 208 kts | 140° |
| 2026-05-04 05:48 | 47.42047 | 7.48796 | 9972 ft | 209 kts | 140° |
| 2026-05-04 05:48 | 47.40892 | 7.50209 | 10487 ft | 211 kts | 141° |
| 2026-05-04 05:48 | 47.39619 | 7.51763 | 11051 ft | 213 kts | 141° |
| 2026-05-04 05:49 | 47.38445 | 7.53196 | 11558 ft | 218 kts | 141° |
| 2026-05-04 05:49 | 47.37232 | 7.54676 | 12083 ft | 226 kts | 142° |
| 2026-05-04 05:49 | 47.35999 | 7.56180 | 12600 ft | 233 kts | 142° |
| 2026-05-04 05:49 | 47.34748 | 7.57704 | 13100 ft | 238 kts | 143° |
| 2026-05-04 05:51 | 47.29190 | 7.76241 | 16694 ft | 327 kts | 101° |
| 2026-05-04 05:51 | 47.28879 | 7.79539 | 17183 ft | 332 kts | 101° |
| 2026-05-04 05:52 | 47.28558 | 7.82919 | 17682 ft | 335 kts | 101° |
| 2026-05-04 05:52 | 47.28234 | 7.86316 | 18175 ft | 340 kts | 101° |
| 2026-05-04 05:52 | 47.27900 | 7.89792 | 18680 ft | 342 kts | 101° |
| 2026-05-04 05:52 | 47.27565 | 7.93285 | 19182 ft | 345 kts | 101° |
| 2026-05-04 05:53 | 47.27220 | 7.96862 | 19697 ft | 348 kts | 101° |
| 2026-05-04 05:54 | 47.17619 | 8.18616 | 23355 ft | 387 kts | 130° |
| 2026-05-04 05:55 | 47.15976 | 8.21811 | 23885 ft | 397 kts | 130° |
| 2026-05-04 05:55 | 47.14297 | 8.25069 | 24412 ft | 405 kts | 130° |
| 2026-05-04 05:55 | 47.12582 | 8.28397 | 24943 ft | 413 kts | 130° |
| 2026-05-04 05:55 | 47.10831 | 8.31790 | 25478 ft | 420 kts | 130° |
| 2026-05-04 05:56 | 47.09053 | 8.35234 | 26012 ft | 427 kts | 130° |
| 2026-05-04 05:56 | 47.07253 | 8.38714 | 26552 ft | 433 kts | 130° |
| 2026-05-04 05:56 | 47.05743 | 8.42553 | 27057 ft | 446 kts | 115° |
| 2026-05-04 05:56 | 47.04922 | 8.46979 | 27613 ft | 454 kts | 105° |
| 2026-05-04 05:57 | 47.04192 | 8.51527 | 28166 ft | 458 kts | 107° |
| 2026-05-04 05:57 | 47.03023 | 8.55821 | 28542 ft | 459 kts | 121° |
| 2026-05-04 05:57 | 47.01515 | 8.59928 | 28958 ft | 466 kts | 121° |
| 2026-05-04 05:57 | 46.99972 | 8.64172 | 29373 ft | 473 kts | 121° |
| 2026-05-04 05:58 | 46.98411 | 8.68473 | 29774 ft | 479 kts | 121° |
| 2026-05-04 05:58 | 46.96833 | 8.72814 | 30170 ft | 483 kts | 121° |
| 2026-05-04 05:58 | 46.95261 | 8.77137 | 30567 ft | 483 kts | 121° |
| 2026-05-04 05:58 | 46.93681 | 8.81474 | 30966 ft | 487 kts | 121° |
| 2026-05-04 05:59 | 46.92080 | 8.85861 | 31373 ft | 490 kts | 121° |
| 2026-05-04 05:59 | 46.90475 | 8.90250 | 31767 ft | 492 kts | 121° |
| 2026-05-04 05:59 | 46.88867 | 8.94642 | 32164 ft | 494 kts | 121° |
| 2026-05-04 05:59 | 46.87231 | 8.99104 | 32583 ft | 494 kts | 121° |
| 2026-05-04 06:00 | 46.85626 | 9.03473 | 32997 ft | 494 kts | 121° |
| 2026-05-04 06:00 | 46.83998 | 9.07898 | 33424 ft | 494 kts | 121° |
| 2026-05-04 06:00 | 46.82358 | 9.12350 | 33844 ft | 493 kts | 121° |
| 2026-05-04 06:00 | 46.80734 | 9.16745 | 34252 ft | 492 kts | 122° |
| 2026-05-04 06:01 | 46.79132 | 9.21078 | 34654 ft | 492 kts | 122° |
| 2026-05-04 06:01 | 46.77484 | 9.25523 | 35043 ft | 490 kts | 121° |
| 2026-05-04 06:03 | 46.66243 | 9.55675 | 37897 ft | 478 kts | 121° |
| 2026-05-04 06:03 | 46.64666 | 9.59874 | 38384 ft | 475 kts | 121° |
| 2026-05-04 06:05 | 46.53453 | 9.89565 | 39123 ft | 492 kts | 121° |
| 2026-05-04 06:05 | 46.50145 | 9.98262 | 39197 ft | 488 kts | 121° |
| 2026-05-04 06:05 | 46.48502 | 10.02454 | 39417 ft | 483 kts | 126° |
| 2026-05-04 06:06 | 46.46317 | 10.06131 | 39647 ft | 476 kts | 141° |
| 2026-05-04 06:06 | 46.43794 | 10.09169 | 39913 ft | 473 kts | 143° |
| 2026-05-04 06:06 | 46.41293 | 10.12178 | 40109 ft | 472 kts | 143° |
| 2026-05-04 06:06 | 46.38744 | 10.15235 | 40303 ft | 471 kts | 143° |
| 2026-05-04 06:07 | 46.36248 | 10.18222 | 40486 ft | 471 kts | 143° |
| 2026-05-04 06:07 | 46.33715 | 10.21251 | 40621 ft | 470 kts | 143° |
| 2026-05-04 06:07 | 46.31220 | 10.24232 | 40759 ft | 470 kts | 143° |
| 2026-05-04 06:07 | 46.28709 | 10.27225 | 40897 ft | 469 kts | 142° |
| 2026-05-04 06:08 | 46.26188 | 10.30230 | 41037 ft | 469 kts | 143° |
| 2026-05-04 06:08 | 46.21106 | 10.36271 | 41114 ft | 474 kts | 142° |
| 2026-05-04 06:09 | 46.16008 | 10.42327 | 41134 ft | 478 kts | 141° |
| 2026-05-04 06:11 | 45.98046 | 10.71171 | 41115 ft | 479 kts | 134° |
| 2026-05-04 06:13 | 45.80409 | 11.00471 | 41101 ft | 479 kts | 123° |
| 2026-05-04 06:14 | 45.67980 | 11.28877 | 41092 ft | 480 kts | 123° |
| 2026-05-04 06:15 | 45.64392 | 11.37017 | 41089 ft | 481 kts | 123° |
| 2026-05-04 06:15 | 45.60363 | 11.44796 | 41089 ft | 479 kts | 128° |
| 2026-05-04 06:16 | 45.56342 | 11.52396 | 41080 ft | 480 kts | 128° |
| 2026-05-04 06:16 | 45.52267 | 11.60095 | 41069 ft | 481 kts | 128° |
| 2026-05-04 06:17 | 45.48266 | 11.67637 | 41065 ft | 481 kts | 129° |
| 2026-05-04 06:17 | 45.44208 | 11.75262 | 41066 ft | 481 kts | 129° |
| 2026-05-04 06:18 | 45.40192 | 11.82791 | 41064 ft | 481 kts | 129° |
| 2026-05-04 06:20 | 45.21217 | 12.09089 | 41055 ft | 480 kts | 138° |
| 2026-05-04 06:21 | 45.09153 | 12.25381 | 41059 ft | 481 kts | 138° |
| 2026-05-04 06:22 | 45.04635 | 12.32319 | 41076 ft | 482 kts | 131° |
| 2026-05-04 06:25 | 44.74430 | 12.83018 | 41057 ft | 485 kts | 131° |
| 2026-05-04 06:26 | 44.70082 | 12.90240 | 41056 ft | 485 kts | 131° |
| 2026-05-04 06:26 | 44.65739 | 12.97436 | 41064 ft | 485 kts | 131° |
| 2026-05-04 06:27 | 44.54853 | 13.15395 | 41066 ft | 485 kts | 131° |
| 2026-05-04 06:28 | 44.50503 | 13.22539 | 41063 ft | 485 kts | 131° |
| 2026-05-04 06:28 | 44.46146 | 13.29678 | 41066 ft | 485 kts | 131° |
| 2026-05-04 06:29 | 44.41777 | 13.36817 | 41071 ft | 485 kts | 131° |
| 2026-05-04 06:29 | 44.37383 | 13.43978 | 41070 ft | 486 kts | 131° |
| 2026-05-04 06:30 | 44.33008 | 13.51094 | 41076 ft | 486 kts | 131° |
| 2026-05-04 06:30 | 44.28588 | 13.58261 | 41080 ft | 486 kts | 131° |
| 2026-05-04 06:31 | 44.24192 | 13.65372 | 41082 ft | 487 kts | 132° |
| 2026-05-04 06:31 | 44.20023 | 13.72742 | 41092 ft | 487 kts | 126° |
| 2026-05-04 06:33 | 44.04233 | 14.03268 | 41090 ft | 489 kts | 127° |
| 2026-05-04 06:34 | 44.00254 | 14.10893 | 41086 ft | 489 kts | 127° |
| 2026-05-04 06:34 | 43.96250 | 14.18546 | 41091 ft | 489 kts | 127° |
| 2026-05-04 06:36 | 43.80258 | 14.48911 | 41103 ft | 491 kts | 127° |
| 2026-05-04 06:37 | 43.76232 | 14.56508 | 41097 ft | 491 kts | 127° |
| 2026-05-04 06:37 | 43.72187 | 14.64118 | 41104 ft | 492 kts | 126° |
| 2026-05-04 06:38 | 43.68155 | 14.71686 | 41097 ft | 492 kts | 127° |
| 2026-05-04 06:40 | 43.51489 | 15.01476 | 41121 ft | 493 kts | 134° |
| 2026-05-04 06:40 | 43.46800 | 15.08335 | 41114 ft | 494 kts | 134° |
| 2026-05-04 06:41 | 43.42077 | 15.15228 | 41114 ft | 494 kts | 134° |
| 2026-05-04 06:41 | 43.37387 | 15.22055 | 41119 ft | 494 kts | 134° |
| 2026-05-04 06:42 | 43.32675 | 15.28898 | 41113 ft | 495 kts | 134° |
| 2026-05-04 06:44 | 43.13707 | 15.56278 | 41111 ft | 498 kts | 134° |
| 2026-05-04 06:44 | 43.08924 | 15.63141 | 41119 ft | 499 kts | 134° |
| 2026-05-04 06:45 | 43.04161 | 15.69957 | 41110 ft | 499 kts | 134° |
| 2026-05-04 06:45 | 42.99355 | 15.76820 | 41112 ft | 499 kts | 134° |
| 2026-05-04 06:46 | 42.94572 | 15.83634 | 41120 ft | 500 kts | 134° |
| 2026-05-04 06:46 | 42.89785 | 15.90435 | 41107 ft | 500 kts | 134° |
| 2026-05-04 06:48 | 42.70506 | 16.17667 | 41104 ft | 501 kts | 134° |
| 2026-05-04 06:50 | 42.51112 | 16.44802 | 41125 ft | 503 kts | 134° |
| 2026-05-04 06:51 | 42.46232 | 16.51589 | 41116 ft | 504 kts | 134° |
| 2026-05-04 06:51 | 42.41358 | 16.58353 | 41115 ft | 506 kts | 134° |
| 2026-05-04 06:52 | 42.36455 | 16.65140 | 41102 ft | 506 kts | 135° |
| 2026-05-04 06:52 | 42.31536 | 16.71930 | 41093 ft | 507 kts | 134° |
| 2026-05-04 06:53 | 42.26633 | 16.78686 | 41102 ft | 508 kts | 134° |
| 2026-05-04 06:53 | 42.21684 | 16.85488 | 41109 ft | 507 kts | 134° |
| 2026-05-04 06:54 | 42.16758 | 16.92242 | 41105 ft | 509 kts | 134° |
| 2026-05-04 06:54 | 42.11816 | 16.99002 | 41120 ft | 509 kts | 134° |
| 2026-05-04 06:55 | 42.06860 | 17.05765 | 41126 ft | 509 kts | 134° |
| 2026-05-04 06:55 | 42.01890 | 17.12532 | 41095 ft | 511 kts | 134° |
| 2026-05-04 06:57 | 41.81806 | 17.39368 | 41114 ft | 511 kts | 134° |
| 2026-05-04 06:58 | 41.76710 | 17.46062 | 41111 ft | 511 kts | 134° |
| 2026-05-04 06:58 | 41.71674 | 17.52666 | 41114 ft | 512 kts | 135° |
| 2026-05-04 06:59 | 41.66562 | 17.59352 | 41108 ft | 512 kts | 135° |
| 2026-05-04 06:59 | 41.61488 | 17.65972 | 41099 ft | 513 kts | 135° |
| 2026-05-04 07:01 | 41.41050 | 17.92487 | 41103 ft | 514 kts | 135° |
| 2026-05-04 07:02 | 41.35958 | 17.99055 | 41086 ft | 515 kts | 135° |
| 2026-05-04 07:02 | 41.30807 | 18.05683 | 41103 ft | 516 kts | 135° |
| 2026-05-04 07:03 | 41.25722 | 18.12336 | 41108 ft | 516 kts | 133° |
| 2026-05-04 07:03 | 41.20696 | 18.19126 | 41098 ft | 517 kts | 133° |
| 2026-05-04 07:04 | 41.15665 | 18.25897 | 41115 ft | 516 kts | 133° |
| 2026-05-04 07:04 | 41.10627 | 18.32661 | 41110 ft | 517 kts | 133° |
| 2026-05-04 07:05 | 41.05612 | 18.39376 | 41122 ft | 517 kts | 133° |
| 2026-05-04 07:05 | 41.00561 | 18.46126 | 41134 ft | 518 kts | 133° |
| 2026-05-04 07:06 | 40.92959 | 18.56255 | 41133 ft | 518 kts | 133° |
| 2026-05-04 07:07 | 40.87888 | 18.62992 | 41126 ft | 519 kts | 133° |
| 2026-05-04 07:09 | 40.67551 | 18.89858 | 41114 ft | 518 kts | 134° |
| 2026-05-04 07:09 | 40.62484 | 18.96513 | 41135 ft | 518 kts | 134° |
| 2026-05-04 07:10 | 40.57309 | 19.03094 | 41126 ft | 519 kts | 136° |
| 2026-05-04 07:12 | 40.36161 | 19.28894 | 41148 ft | 521 kts | 136° |
| 2026-05-04 07:12 | 40.30846 | 19.35342 | 41138 ft | 521 kts | 135° |
| 2026-05-04 07:13 | 40.25549 | 19.41756 | 41146 ft | 522 kts | 135° |
| 2026-05-04 07:13 | 40.20241 | 19.48169 | 41129 ft | 522 kts | 135° |
| 2026-05-04 07:14 | 40.06878 | 19.64250 | 41141 ft | 524 kts | 136° |
| 2026-05-04 07:15 | 40.01526 | 19.70665 | 41147 ft | 524 kts | 136° |
| 2026-05-04 07:15 | 39.96180 | 19.77059 | 41137 ft | 524 kts | 136° |
| 2026-05-04 07:16 | 39.90724 | 19.83388 | 41130 ft | 525 kts | 144° |
| 2026-05-04 07:16 | 39.87559 | 19.85662 | 41136 ft | 522 kts | 159° |
| 2026-05-04 07:16 | 39.84180 | 19.87363 | 41167 ft | 522 kts | 160° |
| 2026-05-04 07:17 | 39.77416 | 19.90769 | 41142 ft | 523 kts | 160° |
| 2026-05-04 07:17 | 39.70639 | 19.94171 | 41142 ft | 524 kts | 160° |
| 2026-05-04 07:18 | 39.63837 | 19.97575 | 41140 ft | 524 kts | 160° |
| 2026-05-04 07:18 | 39.56924 | 20.01027 | 41138 ft | 525 kts | 160° |
| 2026-05-04 07:19 | 39.49930 | 20.04513 | 41124 ft | 525 kts | 160° |
| 2026-05-04 07:19 | 39.43090 | 20.09070 | 41129 ft | 524 kts | 137° |
| 2026-05-04 07:20 | 39.37866 | 20.16019 | 41135 ft | 523 kts | 132° |
| 2026-05-04 07:20 | 39.32680 | 20.22981 | 41137 ft | 524 kts | 132° |
| 2026-05-04 07:22 | 39.12101 | 20.50421 | 41160 ft | 527 kts | 132° |
| 2026-05-04 07:23 | 39.06910 | 20.57300 | 41173 ft | 527 kts | 132° |
| 2026-05-04 07:23 | 39.01747 | 20.64131 | 41172 ft | 528 kts | 132° |
| 2026-05-04 07:24 | 38.96335 | 20.71275 | 41168 ft | 528 kts | 133° |
| 2026-05-04 07:24 | 38.90825 | 20.77766 | 41162 ft | 528 kts | 146° |
| 2026-05-04 07:26 | 38.66180 | 20.99231 | 41161 ft | 530 kts | 146° |
| 2026-05-04 07:27 | 38.60094 | 21.04508 | 41159 ft | 530 kts | 146° |
| 2026-05-04 07:27 | 38.53996 | 21.09782 | 41166 ft | 530 kts | 146° |
| 2026-05-04 07:28 | 38.47912 | 21.15036 | 41163 ft | 530 kts | 146° |
| 2026-05-04 07:28 | 38.41811 | 21.20290 | 41159 ft | 531 kts | 146° |
| 2026-05-04 07:29 | 38.35699 | 21.25544 | 41164 ft | 532 kts | 146° |
| 2026-05-04 07:29 | 38.29549 | 21.30820 | 41171 ft | 532 kts | 146° |
| 2026-05-04 07:30 | 38.23410 | 21.36077 | 41173 ft | 533 kts | 146° |
| 2026-05-04 07:30 | 38.17274 | 21.41318 | 41176 ft | 533 kts | 146° |
| 2026-05-04 07:31 | 38.14366 | 21.44162 | 41157 ft | 532 kts | 135° |
| 2026-05-04 07:31 | 38.11703 | 21.47478 | 41205 ft | 531 kts | 134° |
| 2026-05-04 07:33 | 37.90405 | 21.73580 | 41154 ft | 534 kts | 135° |
| 2026-05-04 07:33 | 37.85061 | 21.80092 | 41137 ft | 534 kts | 136° |
| 2026-05-04 07:34 | 37.79733 | 21.86572 | 41131 ft | 533 kts | 136° |
| 2026-05-04 07:34 | 37.74394 | 21.93053 | 41139 ft | 533 kts | 135° |
| 2026-05-04 07:35 | 37.68998 | 21.99586 | 41139 ft | 533 kts | 136° |
| 2026-05-04 07:35 | 37.63687 | 22.06004 | 41140 ft | 533 kts | 135° |
| 2026-05-04 07:36 | 37.58322 | 22.12475 | 41131 ft | 533 kts | 136° |